KILN/ILN METAR and TAF weather

Enter ICAO airport designator
Station Type Date Time Source
KILN METAR 2019/10/19 06:54 UTC NOAA

KILN 190654Z AUTO 12003KT 10SM CLR 04/01 A3000 RMK AO2 SLP168 T00390011


Station Type Date Time Source
KILN Decoded METAR 2019/10/19 06:54 UTC NOAA

WILMINGTON INDUSTRIAL AIRPORT , OH, United States (KILN) 39-26N 083-47W 332M
Oct 19, 2019 - 02:54 AM EDT / 2019.10.19 0654 UTC
Wind: from the ESE (120 degrees) at 3 MPH (3 KT):0
Visibility: 10 mile(s):0
Sky conditions: clear
Temperature: 39.0 F (3.9 C)
Dew Point: 34.0 F (1.1 C)
Relative Humidity: 81%
Pressure (altimeter): 30 in. Hg (1015 hPa)
ob: KILN 190654Z AUTO 12003KT 10SM CLR 04/01 A3000 RMK AO2 SLP168 T00390011
cycle: 7

Station Type Date Time Source
KILN TAF 2019/10/19 06:24 UTC NOAA

TAF KILN 190523Z 1906/2006 11003KT P6SM SCT250
FM190900 00000KT 3SM BR SCT250
TEMPO 1910/1912 1SM BR
FM191300 14003KT P6SM SCT250
FM191500 16007KT P6SM BKN250
FM200000 15004KT P6SM SCT250

Example: see airport list